Main page
METAR-TAF:

METAR-TAF

Airports :

London City Airport

London, England

latitude: 51-30N, longitude: 000-03E, elevation: 5 m

Current weather observation

The report was made 21 minutes ago, at 09:20 UTC
Wind 11 kt from the East/Southeast
Temperature 4°C
Humidity 93%
Pressure 1005 hPa
Visibility: 7000 m
Overcast at a height of 800 ft

METAR: EGLC 210920Z AUTO 11011KT 7000 OVC008 04/03 Q1005

Time: 09:41 (09:41 UTC)

Forecast

The report was made 1 hour and 40 minutes ago, at 08:01 UTC
Forecast valid from 21 at 09 UTC to 21 at 18 UTC
Wind 10 kt from the East/Southeast
Visibility: 7000 m
Broken clouds at a height of 1000 ft
Temporary
from 21 at 09 UTC to 21 at 18 UTC
Broken clouds at a height of 600 ft
Probability 30% :
Temporary
from 21 at 09 UTC to 21 at 18 UTC
Visibility: 4500 m
haze

TAF: EGLC 210801Z 2109/2118 11010KT 7000 BKN010 TEMPO 2109/2118 BKN006 PROB30 TEMPO 2109/2118 4500 HZ

Weather observations and forecasts of more than 4000 airports (METAR and TAF reports).

The available stations are represented by yellow and red dots on the map.

Hover mouse over dot to see the name of the station.

Then click to see weather observations and forecasts.

To change the map : click on the green buttons with a black cross to zoom in, on the green button with a dash to zoom out, or on the green arrows for adjacent maps.


METAR-TAF: